Time;durP1;ratioP1;P1;durP2;ratioP2;P2;SDS_P1;SDS_P2;PMS_P1;PMS_P2;Temp;Humidity;BMP_temperature;BMP_pressure;BME280_temperature;BME280_humidity;BME280_pressure;Samples;Min_cycle;Max_cycle;Signal;HPM_P1;HPM_P2
2022/08/04 00:00:29;;;;;;;27.60;14.07;;;26.40;78.30;;;;;;5115393;28;20422;-82
2022/08/04 00:03:08;;;;;;;34.33;12.73;;;26.80;76.00;;;;;;5118095;28;20472;-81
2022/08/04 00:05:40;;;;;;;33.27;13.67;;;26.70;77.00;;;;;;5110575;28;20442;-80
2022/08/04 00:08:12;;;;;;;27.73;12.80;;;26.80;76.30;;;;;;5110055;28;20423;-80
2022/08/04 00:10:40;;;;;;;32.60;14.27;;;26.80;75.80;;;;;;5107590;28;20406;-80
2022/08/04 00:13:07;;;;;;;38.73;13.30;;;27.00;75.00;;;;;;5110691;28;20434;-80
2022/08/04 00:15:35;;;;;;;30.30;13.17;;;27.10;74.50;;;;;;5109852;28;20454;-80
2022/08/04 00:18:05;;;;;;;32.60;14.40;;;27.00;74.60;;;;;;5110182;28;20459;-80
2022/08/04 00:20:34;;;;;;;30.80;13.43;;;26.80;75.40;;;;;;5109452;28;20467;-80
2022/08/04 00:23:02;;;;;;;34.23;14.80;;;26.90;75.20;;;;;;5105196;28;20468;-79
2022/08/04 00:25:30;;;;;;;29.23;13.00;;;26.70;76.00;;;;;;5104358;28;20476;-80
2022/08/04 00:27:59;;;;;;;27.50;14.00;;;26.50;77.70;;;;;;5102601;28;20515;-80
2022/08/04 00:30:27;;;;;;;33.73;14.70;;;26.50;76.80;;;;;;5110821;28;20418;-80
2022/08/04 00:32:55;;;;;;;25.93;13.30;;;26.50;78.30;;;;;;5110428;28;20550;-80
2022/08/04 00:35:24;;;;;;;29.00;13.53;;;26.70;77.80;;;;;;5111253;28;20448;-80
2022/08/04 00:37:52;;;;;;;30.40;14.87;;;26.30;79.30;;;;;;5114519;28;20459;-80
2022/08/04 00:40:24;;;;;;;31.00;14.53;;;26.20;80.10;;;;;;5114292;28;20487;-80
2022/08/04 00:43:03;;;;;;;25.97;13.43;;;26.30;80.00;;;;;;5112009;28;20481;-79
2022/08/04 00:45:50;;;;;;;28.47;12.83;;;26.30;80.00;;;;;;5114640;28;20451;-80
2022/08/04 00:48:50;;;;;;;29.57;12.73;;;26.40;80.00;;;;;;5112125;28;20459;-81
2022/08/04 00:51:25;;;;;;;28.80;13.90;;;26.70;77.80;;;;;;5117112;28;20416;-80
2022/08/04 00:53:58;;;;;;;26.67;13.60;;;25.90;79.30;;;;;;5116889;28;20524;-80
2022/08/04 00:56:37;;;;;;;24.77;14.30;;;26.00;82.40;;;;;;5116044;28;20442;-80
2022/08/04 00:59:10;;;;;;;36.17;13.40;;;26.20;81.40;;;;;;5103957;28;20981;-81
2022/08/04 01:01:55;;;;;;;26.43;13.47;;;26.30;80.80;;;;;;5116559;28;20432;-80
2022/08/04 01:04:28;;;;;;;28.80;14.07;;;26.40;80.20;;;;;;5116604;28;20442;-80
2022/08/04 01:07:10;;;;;;;26.90;15.27;;;26.50;79.70;;;;;;5115081;27;20523;-80
2022/08/04 01:09:44;;;;;;;25.57;14.50;;;26.40;79.50;;;;;;5114634;28;20447;-80
2022/08/04 01:12:21;;;;;;;34.53;14.80;;;26.20;81.30;;;;;;5114130;28;20421;-79
2022/08/04 01:14:55;;;;;;;39.60;15.13;;;26.10;81.90;;;;;;5113316;28;20835;-79
2022/08/04 01:17:25;;;;;;;29.57;14.43;;;26.30;81.50;;;;;;5099989;28;20989;-80
2022/08/04 01:20:05;;;;;;;27.30;13.83;;;26.30;81.20;;;;;;5113334;28;20406;-77
2022/08/04 01:23:00;;;;;;;32.17;15.40;;;26.20;81.70;;;;;;5112871;28;20420;-76
2022/08/04 01:26:01;;;;;;;34.70;14.90;;;26.20;82.50;;;;;;5112447;28;20444;-76
2022/08/04 01:29:07;;;;;;;31.60;14.03;;;26.40;81.70;;;;;;5105873;28;20435;-76
2022/08/04 01:31:48;;;;;;;32.30;16.30;;;26.20;81.40;;;;;;5109107;28;20427;-76
2022/08/04 01:34:16;;;;;;;35.17;14.80;;;26.10;83.20;;;;;;5111763;28;20466;-76
2022/08/04 01:36:46;;;;;;;31.00;14.87;;;26.20;83.80;;;;;;5112210;28;20443;-76
2022/08/04 01:42:02;;;;;;;32.17;15.17;;;25.90;85.50;;;;;;5112047;28;20432;-77
2022/08/04 01:44:31;;;;;;;29.73;17.03;;;25.90;85.80;;;;;;5112407;28;20447;-77
2022/08/04 01:47:00;;;;;;;35.60;15.90;;;26.10;84.70;;;;;;5110823;28;20486;-77
2022/08/04 01:49:29;;;;;;;25.60;14.07;;;26.10;84.20;;;;;;5112179;28;20510;-77
2022/08/04 01:52:09;;;;;;;33.47;16.00;;;25.70;87.10;;;;;;5092263;28;20421;-76
2022/08/04 01:54:39;;;;;;;34.67;15.07;;;25.70;88.30;;;;;;5092196;28;20460;-76
2022/08/04 01:57:07;;;;;;;26.30;15.40;;;25.90;87.00;;;;;;5091554;28;20411;-76
2022/08/04 01:59:56;;;;;;;28.83;14.37;;;26.20;85.30;;;;;;5093063;28;20476;-76
2022/08/04 02:02:24;;;;;;;33.03;15.20;;;25.90;86.90;;;;;;5090281;28;20429;-76
2022/08/04 02:04:51;;;;;;;30.20;14.90;;;25.70;87.60;;;;;;5102396;28;20477;-76
2022/08/04 02:07:28;;;;;;;25.60;14.67;;;25.40;90.50;;;;;;5112851;28;20485;-76
2022/08/04 02:10:03;;;;;;;37.87;15.30;;;25.30;90.60;;;;;;5113784;28;20444;-76
2022/08/04 02:12:41;;;;;;;24.83;14.57;;;25.10;91.00;;;;;;5111673;28;20424;-76
2022/08/04 02:15:13;;;;;;;27.80;14.10;;;25.40;91.20;;;;;;5111155;28;20422;-76
2022/08/04 02:17:45;;;;;;;34.67;15.93;;;24.70;93.30;;;;;;5111507;28;20453;-76
2022/08/04 02:20:16;;;;;;;37.03;15.83;;;24.50;94.90;;;;;;5111796;28;20446;-76
2022/08/04 02:22:47;;;;;;;34.33;15.60;;;24.50;96.00;;;;;;5110165;28;20455;-76
2022/08/04 02:25:18;;;;;;;25.80;14.40;;;24.60;95.90;;;;;;5110847;28;20546;-76
2022/08/04 02:27:55;;;;;;;26.93;15.17;;;24.60;96.00;;;;;;5111573;28;20421;-76
2022/08/04 02:30:31;;;;;;;32.13;14.87;;;24.60;96.80;;;;;;5111359;28;20440;-77
2022/08/04 02:33:02;;;;;;;28.47;16.33;;;24.50;96.60;;;;;;5111361;28;20474;-77
2022/08/04 02:35:30;;;;;;;28.33;15.50;;;24.50;97.30;;;;;;5110936;28;20471;-76
2022/08/04 02:38:02;;;;;;;33.83;14.77;;;24.30;97.80;;;;;;5110125;28;20436;-76
2022/08/04 02:40:30;;;;;;;28.47;14.70;;;24.30;99.00;;;;;;5111678;28;20432;-76
2022/08/04 02:42:59;;;;;;;31.30;14.40;;;24.60;98.60;;;;;;5111461;28;20433;-77
2022/08/04 02:45:27;;;;;;;27.47;14.67;;;24.80;97.70;;;;;;5111224;28;20438;-77
2022/08/04 02:47:56;;;;;;;28.77;13.40;;;25.20;95.80;;;;;;5112012;28;20432;-77
2022/08/04 02:50:44;;;;;;;22.10;14.13;;;24.90;96.70;;;;;;5111858;28;20406;-77
2022/08/04 02:53:12;;;;;;;25.97;13.03;;;24.90;96.90;;;;;;5111184;28;20535;-77
2022/08/04 02:55:41;;;;;;;28.03;13.60;;;24.90;96.70;;;;;;5110913;28;20440;-76
2022/08/04 02:58:20;;;;;;;28.60;13.07;;;25.20;95.80;;;;;;5107248;28;20414;-77
2022/08/04 03:00:49;;;;;;;27.20;12.40;;;25.50;94.10;;;;;;5111208;28;20422;-76
2022/08/04 03:03:24;;;;;;;26.07;12.13;;;25.40;93.80;;;;;;5111236;28;20423;-77
2022/08/04 03:06:09;;;;;;;25.37;12.37;;;25.50;94.30;;;;;;5110829;28;20453;-77
2022/08/04 03:08:56;;;;;;;22.23;12.57;;;25.70;93.10;;;;;;5111403;28;20442;-77
2022/08/04 03:12:05;;;;;;;30.20;13.37;;;25.70;92.20;;;;;;5106465;28;20416;-76
2022/08/04 03:14:50;;;;;;;24.17;11.80;;;25.70;92.80;;;;;;5077806;28;20442;-77
2022/08/04 03:17:45;;;;;;;28.20;13.57;;;25.90;91.80;;;;;;5090480;28;20436;-77
2022/08/04 03:20:56;;;;;;;21.33;11.70;;;26.00;91.30;;;;;;5091275;28;20545;-77
2022/08/04 03:23:57;;;;;;;29.23;12.17;;;25.90;91.20;;;;;;5091007;28;20395;-77
2022/08/04 03:26:51;;;;;;;27.43;13.97;;;25.90;90.70;;;;;;5089363;28;20435;-77
2022/08/04 03:29:34;;;;;;;29.40;19.30;;;25.90;91.20;;;;;;5105690;28;20406;-76
2022/08/04 03:32:40;;;;;;;32.00;16.87;;;25.80;90.90;;;;;;5110865;28;20468;-75
2022/08/04 03:35:21;;;;;;;25.83;12.40;;;25.90;91.40;;;;;;5079011;28;20455;-76
2022/08/04 03:38:13;;;;;;;24.87;11.60;;;25.90;90.80;;;;;;5111088;28;20514;-76
2022/08/04 03:41:04;;;;;;;27.13;13.37;;;25.70;91.30;;;;;;5110755;28;20438;-76
2022/08/04 03:44:03;;;;;;;25.70;13.10;;;25.70;90.90;;;;;;5101683;28;20458;-76
2022/08/04 03:46:51;;;;;;;23.67;12.20;;;25.80;90.70;;;;;;5069860;28;20439;-76
2022/08/04 03:49:47;;;;;;;22.13;11.90;;;25.70;91.20;;;;;;5108292;28;20446;-76
2022/08/04 03:55:27;;;;;;;28.93;11.93;;;25.80;90.80;;;;;;5109804;28;20973;-76
2022/08/04 03:58:11;;;;;;;21.87;12.07;;;25.90;90.10;;;;;;5110616;28;20402;-76
2022/08/04 04:00:41;;;;;;;21.67;11.67;;;25.90;90.50;;;;;;5107617;28;20454;-76
2022/08/04 04:03:53;;;;;;;18.77;11.43;;;25.90;90.50;;;;;;5110332;28;20413;-76
2022/08/04 04:06:47;;;;;;;21.53;11.30;;;25.10;91.90;;;;;;5066814;28;20411;-76
2022/08/04 04:09:49;;;;;;;18.20;10.90;;;25.60;91.30;;;;;;5110731;28;20791;-76
2022/08/04 04:12:54;;;;;;;18.73;9.97;;;25.10;92.80;;;;;;5110297;28;20410;-76
2022/08/04 04:15:46;;;;;;;18.93;10.30;;;25.30;92.60;;;;;;5108753;28;20431;-76
2022/08/04 04:18:22;;;;;;;28.43;10.80;;;25.60;91.80;;;;;;5104962;28;20492;-76
2022/08/04 04:20:57;;;;;;;20.17;9.87;;;24.90;93.30;;;;;;5113170;28;20442;-76
2022/08/04 04:23:40;;;;;;;17.57;9.77;;;24.30;95.80;;;;;;5114521;28;20512;-76
2022/08/04 04:26:22;;;;;;;18.83;9.97;;;24.30;96.70;;;;;;5113924;28;20422;-76
2022/08/04 04:28:56;;;;;;;17.43;9.57;;;25.00;95.90;;;;;;5114535;28;20436;-76
2022/08/04 04:31:37;;;;;;;22.70;9.50;;;25.40;94.00;;;;;;5114318;28;20455;-76
2022/08/04 04:34:09;;;;;;;20.70;9.07;;;25.10;93.50;;;;;;5104782;27;20479;-76
2022/08/04 04:36:41;;;;;;;16.07;9.27;;;24.90;94.50;;;;;;5113713;28;20506;-76
2022/08/04 04:39:13;;;;;;;19.27;8.87;;;24.90;95.20;;;;;;5114304;28;20450;-77
2022/08/04 04:42:06;;;;;;;19.93;9.00;;;25.00;95.10;;;;;;5113902;28;20448;-76
2022/08/04 04:45:01;;;;;;;19.87;8.67;;;25.20;95.10;;;;;;5114468;28;20459;-76
2022/08/04 04:47:33;;;;;;;21.63;9.13;;;25.40;93.70;;;;;;5109754;28;20426;-76
2022/08/04 04:50:26;;;;;;;20.60;9.33;;;25.40;93.40;;;;;;5105085;28;20838;-75
2022/08/04 04:53:07;;;;;;;13.83;7.83;;;25.20;93.90;;;;;;5108095;28;20480;-76
2022/08/04 04:55:39;;;;;;;15.80;7.90;;;25.20;93.90;;;;;;5113316;28;20431;-76
2022/08/04 04:58:12;;;;;;;16.17;8.23;;;25.20;94.60;;;;;;5113783;28;20435;-76
2022/08/04 05:01:14;;;;;;;24.30;8.40;;;25.50;93.70;;;;;;5113124;28;20460;-76
2022/08/04 05:03:53;;;;;;;17.67;8.30;;;25.90;92.40;;;;;;5113920;28;20457;-76
2022/08/04 05:06:36;;;;;;;16.00;7.70;;;26.20;91.10;;;;;;5112215;28;20425;-76
2022/08/04 05:09:08;;;;;;;15.27;7.37;;;26.40;90.00;;;;;;5106482;28;20926;-76
2022/08/04 05:11:45;;;;;;;23.27;8.50;;;26.40;88.90;;;;;;5113096;28;20399;-75
2022/08/04 05:14:16;;;;;;;20.70;8.53;;;26.10;90.10;;;;;;5113376;28;20483;-76
2022/08/04 05:17:09;;;;;;;17.10;7.30;;;26.00;90.10;;;;;;5112879;28;20410;-76
2022/08/04 05:19:44;;;;;;;22.47;7.03;;;25.70;91.80;;;;;;5113279;28;20440;-76
2022/08/04 05:22:13;;;;;;;20.57;6.67;;;26.00;90.80;;;;;;5113124;28;20734;-76
2022/08/04 05:24:42;;;;;;;21.83;6.47;;;26.10;90.60;;;;;;5111746;28;20472;-76
2022/08/04 05:27:12;;;;;;;18.17;6.50;;;26.20;90.00;;;;;;5112086;28;20428;-76
2022/08/04 05:29:45;;;;;;;27.23;7.23;;;25.90;90.70;;;;;;5113133;28;20458;-76
2022/08/04 05:32:15;;;;;;;17.90;7.13;;;25.80;91.70;;;;;;5112816;28;20419;-76
2022/08/04 05:34:44;;;;;;;18.63;6.70;;;25.80;91.60;;;;;;5112813;28;20554;-76
2022/08/04 05:37:15;;;;;;;22.70;6.13;;;25.70;92.00;;;;;;5112670;28;20534;-77
2022/08/04 05:39:46;;;;;;;16.10;6.50;;;26.00;91.10;;;;;;5111580;28;20438;-77
2022/08/04 05:42:14;;;;;;;16.30;6.37;;;26.20;91.20;;;;;;5106737;28;20482;-76
2022/08/04 05:44:42;;;;;;;23.17;6.40;;;26.40;90.70;;;;;;5112397;28;20456;-76
2022/08/04 05:47:16;;;;;;;31.53;9.00;;;26.50;90.00;;;;;;5112654;28;20399;-76
2022/08/04 05:49:44;;;;;;;43.00;8.80;;;26.50;90.10;;;;;;5112571;28;20427;-76
2022/08/04 05:52:28;;;;;;;34.27;6.83;;;26.50;90.30;;;;;;5112464;28;20410;-76
2022/08/04 05:54:56;;;;;;;16.60;5.40;;;26.60;90.20;;;;;;5111664;28;20825;-76
2022/08/04 05:57:23;;;;;;;14.67;6.23;;;26.60;88.10;;;;;;5111721;28;20433;-76
2022/08/04 05:59:52;;;;;;;25.00;7.20;;;26.80;89.00;;;;;;5112347;28;20414;-76
2022/08/04 06:02:21;;;;;;;16.60;7.40;;;27.10;87.00;;;;;;5113615;28;20436;-78
2022/08/04 06:04:50;;;;;;;19.23;6.40;;;27.40;87.00;;;;;;5117134;28;20464;-77
2022/08/04 06:07:18;;;;;;;13.23;5.97;;;27.50;85.10;;;;;;5114958;28;20439;-77
2022/08/04 06:09:46;;;;;;;17.73;6.20;;;27.60;83.70;;;;;;5115431;28;20433;-78
2022/08/04 06:12:17;;;;;;;18.83;5.70;;;27.70;82.20;;;;;;5115864;28;20450;-77
2022/08/04 06:14:45;;;;;;;18.60;7.00;;;27.80;81.50;;;;;;5111684;28;20989;-77
2022/08/04 06:17:15;;;;;;;17.73;6.17;;;27.90;80.30;;;;;;5112388;28;20443;-77
2022/08/04 06:20:06;;;;;;;14.97;5.63;;;28.00;79.50;;;;;;5112008;28;20439;-77
2022/08/04 06:22:52;;;;;;;16.97;6.03;;;28.10;78.30;;;;;;5110736;28;20475;-76
2022/08/04 06:25:21;;;;;;;12.73;5.53;;;28.20;77.70;;;;;;5110884;28;20459;-77
2022/08/04 06:27:49;;;;;;;8.93;5.30;;;28.20;77.20;;;;;;5111171;28;20515;-77
2022/08/04 06:30:18;;;;;;;19.87;5.43;;;28.30;76.50;;;;;;5111039;27;20444;-77
2022/08/04 06:32:54;;;;;;;13.40;5.97;;;28.40;75.80;;;;;;5105556;28;20479;-77
2022/08/04 06:35:33;;;;;;;10.53;5.20;;;28.40;75.40;;;;;;5111184;28;20505;-77
2022/08/04 06:38:01;;;;;;;12.23;4.77;;;28.50;74.50;;;;;;5111703;28;20446;-77
2022/08/04 06:40:29;;;;;;;11.90;5.60;;;28.60;73.90;;;;;;5112045;28;20471;-77
2022/08/04 06:43:01;;;;;;;12.33;5.30;;;28.60;73.30;;;;;;5110965;28;20463;-77
2022/08/04 06:45:29;;;;;;;19.13;5.77;;;28.70;72.70;;;;;;5111525;28;20499;-77
2022/08/04 06:47:57;;;;;;;13.93;5.57;;;28.80;72.30;;;;;;5105348;28;20434;-77
2022/08/04 06:50:26;;;;;;;9.33;5.60;;;28.80;71.60;;;;;;5111128;28;20448;-77
2022/08/04 06:53:16;;;;;;;12.77;4.80;;;28.90;71.30;;;;;;5111566;28;20407;-77
2022/08/04 06:55:46;;;;;;;10.17;5.03;;;28.90;70.80;;;;;;5110773;28;20611;-78
2022/08/04 06:58:14;;;;;;;11.20;5.13;;;29.00;70.40;;;;;;5111667;28;20472;-77
2022/08/04 07:00:42;;;;;;;7.43;4.43;;;29.00;70.00;;;;;;5111767;28;20470;-77
2022/08/04 07:03:09;;;;;;;10.93;4.87;;;29.10;69.80;;;;;;5110383;28;20411;-77
2022/08/04 07:05:37;;;;;;;10.03;4.93;;;29.10;69.40;;;;;;5111053;28;20452;-77
2022/08/04 07:08:05;;;;;;;12.50;4.60;;;29.20;69.20;;;;;;5111862;28;20453;-77
2022/08/04 07:10:34;;;;;;;9.30;4.40;;;29.20;68.90;;;;;;5112307;28;20454;-77
2022/08/04 07:13:02;;;;;;;8.27;4.63;;;29.30;68.50;;;;;;5111341;28;20460;-77
2022/08/04 07:15:30;;;;;;;7.07;4.53;;;29.30;68.30;;;;;;5111081;28;20547;-77
2022/08/04 07:18:00;;;;;;;16.40;5.43;;;29.40;68.20;;;;;;5110755;28;20439;-77
2022/08/04 07:20:27;;;;;;;7.43;4.23;;;29.50;68.10;;;;;;5110116;28;20507;-77
2022/08/04 07:23:03;;;;;;;8.20;4.17;;;29.50;67.70;;;;;;5102986;28;20434;-77
2022/08/04 07:25:31;;;;;;;7.07;4.30;;;29.60;67.50;;;;;;5110696;28;20554;-77
2022/08/04 07:28:21;;;;;;;6.23;4.30;;;29.60;67.10;;;;;;5110489;28;20497;-77
2022/08/04 07:30:49;;;;;;;6.37;4.53;;;29.70;67.00;;;;;;5110666;28;20446;-77
2022/08/04 07:33:17;;;;;;;10.30;4.60;;;29.70;66.60;;;;;;5110439;28;20989;-77
2022/08/04 07:35:45;;;;;;;6.70;4.13;;;29.80;66.40;;;;;;5110578;28;20456;-77
2022/08/04 07:38:32;;;;;;;8.47;4.10;;;29.80;66.20;;;;;;5107395;28;20419;-77
2022/08/04 07:41:04;;;;;;;7.03;4.23;;;29.90;65.90;;;;;;5111069;28;20477;-77
2022/08/04 07:43:54;;;;;;;8.97;4.37;;;30.00;65.70;;;;;;5110228;28;20460;-77
2022/08/04 07:46:22;;;;;;;5.47;4.07;;;30.10;65.50;;;;;;5110507;28;20451;-77
2022/08/04 07:48:50;;;;;;;4.80;3.77;;;30.20;65.20;;;;;;5111214;28;20455;-77
2022/08/04 07:51:18;;;;;;;9.03;4.23;;;30.30;64.60;;;;;;5110980;28;20450;-77
2022/08/04 07:53:46;;;;;;;10.00;4.30;;;30.40;64.30;;;;;;5108661;28;20461;-77
2022/08/04 07:56:22;;;;;;;5.83;3.60;;;30.40;64.10;;;;;;5114633;28;20782;-77
2022/08/04 07:58:50;;;;;;;11.00;4.30;;;30.50;64.00;;;;;;5115545;28;20537;-77
2022/08/04 08:01:21;;;;;;;8.83;3.80;;;30.60;63.70;;;;;;5114630;28;20978;-77
2022/08/04 08:03:49;;;;;;;11.40;4.40;;;30.70;63.30;;;;;;5115469;28;20554;-77
2022/08/04 08:06:17;;;;;;;10.60;3.97;;;30.70;63.00;;;;;;5114691;28;20448;-78
2022/08/04 08:09:00;;;;;;;8.13;3.60;;;30.80;62.90;;;;;;5114452;28;20512;-77
2022/08/04 08:11:41;;;;;;;6.50;3.37;;;30.80;62.40;;;;;;5114259;28;20435;-77
2022/08/04 08:14:29;;;;;;;10.30;4.63;;;31.00;62.30;;;;;;5114482;28;20974;-77
2022/08/04 08:17:01;;;;;;;6.03;3.70;;;31.00;61.90;;;;;;5114154;28;20864;-77
2022/08/04 08:19:29;;;;;;;8.77;3.40;;;31.10;61.70;;;;;;5114811;28;20447;-77
2022/08/04 08:21:57;;;;;;;10.00;3.90;;;31.10;61.40;;;;;;5114307;28;21012;-77
2022/08/04 08:24:28;;;;;;;4.93;3.73;;;31.20;61.20;;;;;;5114634;28;20487;-77
2022/08/04 08:26:56;;;;;;;5.37;3.27;;;31.30;61.00;;;;;;5109682;28;20510;-77
2022/08/04 08:29:25;;;;;;;6.07;3.93;;;31.40;60.80;;;;;;5114471;28;20440;-77
2022/08/04 08:31:53;;;;;;;3.43;3.13;;;31.50;60.50;;;;;;5107847;28;20447;-77
2022/08/04 08:34:27;;;;;;;7.70;3.60;;;31.50;60.20;;;;;;5112215;28;20467;-77
2022/08/04 08:36:59;;;;;;;7.33;3.77;;;31.60;59.90;;;;;;5112795;28;20442;-77
2022/08/04 08:39:29;;;;;;;6.03;3.63;;;31.60;59.70;;;;;;5114532;28;20515;-77
2022/08/04 08:42:21;;;;;;;8.57;3.47;;;31.70;59.70;;;;;;5113051;28;20467;-77
2022/08/04 08:45:17;;;;;;;7.10;2.93;;;31.90;59.20;;;;;;5113191;28;20539;-77
2022/08/04 08:48:19;;;;;;;4.20;3.07;;;32.10;58.90;;;;;;5094336;28;20451;-77
2022/08/04 08:51:01;;;;;;;3.33;3.03;;;32.20;58.40;;;;;;5094711;28;20447;-77
2022/08/04 08:53:43;;;;;;;4.83;3.10;;;32.30;58.20;;;;;;5097578;28;20435;-77
2022/08/04 08:56:13;;;;;;;4.83;3.50;;;32.40;57.90;;;;;;5113640;27;20442;-77
2022/08/04 08:58:51;;;;;;;5.77;3.00;;;32.60;57.60;;;;;;5114887;27;20519;-77
2022/08/04 09:01:29;;;;;;;6.60;3.07;;;32.70;57.10;;;;;;5108760;28;20449;-77
2022/08/04 09:04:35;;;;;;;4.53;3.00;;;32.70;56.90;;;;;;5114032;27;21002;-77
2022/08/04 09:07:13;;;;;;;4.63;2.90;;;32.80;56.70;;;;;;5076602;28;20438;-77
2022/08/04 09:09:58;;;;;;;4.77;2.97;;;32.90;56.40;;;;;;5093521;28;20440;-77
2022/08/04 09:12:29;;;;;;;4.37;3.00;;;33.00;56.10;;;;;;5112800;28;20415;-76
2022/08/04 09:15:03;;;;;;;6.90;2.93;;;33.00;56.00;;;;;;5113529;28;20530;-77
2022/08/04 09:17:35;;;;;;;3.83;2.60;;;33.10;55.70;;;;;;5111107;28;20519;-77
2022/08/04 09:20:05;;;;;;;3.67;2.77;;;33.10;55.60;;;;;;5110933;28;20515;-77
2022/08/04 09:22:38;;;;;;;4.20;3.10;;;33.20;55.50;;;;;;5114163;28;20468;-78
2022/08/04 09:25:08;;;;;;;4.07;2.67;;;33.30;55.40;;;;;;5114595;28;20547;-78
2022/08/04 09:27:44;;;;;;;4.20;2.63;;;33.40;55.20;;;;;;5115724;28;20440;-78
2022/08/04 09:30:13;;;;;;;2.80;2.60;;;33.50;54.90;;;;;;5115911;28;20438;-78
2022/08/04 09:32:44;;;;;;;7.50;2.50;;;33.60;54.60;;;;;;5116020;28;20440;-78
2022/08/04 09:35:17;;;;;;;5.30;2.80;;;33.70;54.20;;;;;;5110757;28;20472;-78
2022/08/04 09:37:53;;;;;;;3.47;2.43;;;33.70;54.00;;;;;;5115302;28;20438;-78
2022/08/04 09:40:23;;;;;;;6.67;2.70;;;33.70;54.00;;;;;;5115490;28;20531;-78
2022/08/04 09:43:05;;;;;;;4.73;2.83;;;33.90;54.00;;;;;;5115707;28;20487;-78
2022/08/04 09:45:36;;;;;;;4.40;2.60;;;33.90;53.60;;;;;;5113793;28;21070;-77
2022/08/04 09:48:14;;;;;;;3.53;2.00;;;34.00;53.30;;;;;;5114413;28;20473;-78
2022/08/04 09:50:44;;;;;;;2.60;2.40;;;34.10;53.10;;;;;;5109362;28;20459;-77
2022/08/04 09:53:27;;;;;;;3.57;2.30;;;34.20;52.80;;;;;;5114610;28;20444;-77
2022/08/04 09:55:58;;;;;;;3.00;2.70;;;34.30;52.60;;;;;;5114150;28;20444;-78
2022/08/04 09:58:53;;;;;;;2.37;2.17;;;34.50;52.50;;;;;;5115829;28;20454;-80
2022/08/04 10:01:22;;;;;;;3.33;2.37;;;34.60;52.20;;;;;;5106667;27;20817;-77
2022/08/04 10:03:52;;;;;;;2.97;2.30;;;34.70;51.90;;;;;;5114278;28;20559;-77
2022/08/04 10:06:42;;;;;;;5.57;2.40;;;34.80;51.60;;;;;;5092585;28;20484;-77
2022/08/04 10:09:21;;;;;;;2.53;2.33;;;34.90;51.40;;;;;;5105343;28;20953;-77
2022/08/04 10:12:08;;;;;;;3.40;2.27;;;35.00;51.20;;;;;;5112345;28;20495;-77
2022/08/04 10:14:40;;;;;;;2.50;2.30;;;35.20;51.10;;;;;;5111540;28;20464;-77
2022/08/04 10:17:20;;;;;;;2.27;2.10;;;35.30;50.80;;;;;;5111307;28;20459;-77
2022/08/04 10:19:53;;;;;;;2.93;2.20;;;35.50;50.50;;;;;;5112685;28;20470;-77
2022/08/04 10:22:24;;;;;;;2.60;2.23;;;35.60;50.20;;;;;;5114330;28;20446;-78
2022/08/04 10:25:03;;;;;;;2.53;2.40;;;35.70;49.90;;;;;;5109829;28;20471;-77
2022/08/04 10:27:52;;;;;;;2.50;2.30;;;35.70;49.70;;;;;;5114317;28;20424;-79
2022/08/04 10:30:19;;;;;;;2.00;1.90;;;35.80;50.20;;;;;;5112357;28;20450;-75
2022/08/04 10:32:50;;;;;;;2.37;2.23;;;36.00;49.30;;;;;;5111977;28;20450;-76
2022/08/04 10:35:19;;;;;;;2.30;2.10;;;36.10;49.10;;;;;;5111633;28;20472;-77
2022/08/04 10:37:51;;;;;;;2.80;2.20;;;36.20;48.80;;;;;;5111630;28;20436;-77
2022/08/04 10:40:43;;;;;;;2.20;2.10;;;36.30;48.60;;;;;;5104513;28;20457;-77
2022/08/04 10:43:22;;;;;;;2.30;2.20;;;36.40;48.50;;;;;;5110645;28;20986;-77
2022/08/04 10:45:52;;;;;;;2.93;2.10;;;36.50;48.20;;;;;;5111113;28;20534;-77
2022/08/04 10:48:29;;;;;;;2.20;2.10;;;36.60;48.00;;;;;;5111741;28;20455;-76
2022/08/04 10:51:04;;;;;;;2.10;1.83;;;36.70;47.80;;;;;;5110991;28;20926;-77
2022/08/04 10:53:32;;;;;;;2.37;2.17;;;36.80;47.70;;;;;;5111842;28;20468;-77
2022/08/04 10:56:06;;;;;;;2.00;1.90;;;36.90;47.60;;;;;;5109792;28;20448;-77
2022/08/04 10:58:38;;;;;;;3.13;1.90;;;37.00;47.20;;;;;;5108877;28;20477;-77
2022/08/04 11:01:18;;;;;;;2.00;1.90;;;37.10;47.80;;;;;;5109186;28;20436;-77
2022/08/04 11:04:10;;;;;;;2.23;2.13;;;37.20;46.80;;;;;;5101893;28;20470;-77
2022/08/04 11:06:38;;;;;;;2.17;1.97;;;37.30;46.90;;;;;;5110677;28;20470;-77
2022/08/04 11:09:06;;;;;;;2.13;2.03;;;37.40;46.60;;;;;;5110832;27;20542;-76
2022/08/04 11:11:44;;;;;;;1.70;1.60;;;37.40;46.40;;;;;;5110963;28;20444;-76
2022/08/04 11:14:31;;;;;;;1.87;1.77;;;37.50;46.30;;;;;;5109993;28;20475;-77
2022/08/04 11:17:01;;;;;;;1.90;1.80;;;37.70;46.10;;;;;;5111537;28;20439;-77
2022/08/04 11:19:31;;;;;;;2.00;1.90;;;37.80;45.90;;;;;;5112457;28;20532;-77
2022/08/04 11:22:15;;;;;;;2.03;1.90;;;37.90;45.70;;;;;;5111128;28;20811;-77
2022/08/04 11:24:45;;;;;;;1.93;1.70;;;38.00;45.60;;;;;;5110329;28;20480;-77
2022/08/04 11:27:16;;;;;;;2.07;1.87;;;38.20;45.40;;;;;;5110393;28;20467;-77
2022/08/04 11:29:49;;;;;;;2.03;1.87;;;38.30;45.20;;;;;;5090807;28;20449;-78
2022/08/04 11:32:18;;;;;;;2.00;1.90;;;38.40;45.10;;;;;;5106098;28;20448;-78
2022/08/04 11:34:48;;;;;;;1.87;1.80;;;38.50;44.90;;;;;;5111700;28;20519;-77
2022/08/04 11:37:23;;;;;;;1.87;1.77;;;38.60;44.80;;;;;;5110885;28;20436;-76
2022/08/04 11:39:52;;;;;;;1.73;1.63;;;38.80;44.80;;;;;;5109959;28;20447;-77
2022/08/04 11:42:23;;;;;;;1.70;1.60;;;38.80;44.50;;;;;;5110422;28;20432;-77
2022/08/04 11:44:52;;;;;;;1.83;1.50;;;38.90;44.30;;;;;;5110735;28;20486;-77
2022/08/04 11:47:25;;;;;;;1.90;1.60;;;38.80;44.20;;;;;;5109850;28;20448;-77
2022/08/04 11:49:56;;;;;;;3.17;1.80;;;39.00;44.10;;;;;;5104133;28;20920;-77
2022/08/04 11:52:25;;;;;;;1.47;1.47;;;39.10;44.00;;;;;;5110677;28;20435;-77
2022/08/04 11:54:53;;;;;;;1.60;1.60;;;39.10;43.80;;;;;;5111090;28;20467;-78
2022/08/04 11:57:23;;;;;;;1.90;1.80;;;39.20;43.80;;;;;;5111762;28;20447;-78
2022/08/04 12:00:03;;;;;;;1.90;1.80;;;39.30;43.40;;;;;;5114299;28;20478;-78
2022/08/04 12:03:00;;;;;;;1.80;1.70;;;39.30;43.50;;;;;;5112850;28;20487;-76
2022/08/04 12:05:30;;;;;;;1.50;1.50;;;39.30;43.30;;;;;;5112871;28;20530;-78
2022/08/04 12:08:16;;;;;;;1.60;1.50;;;39.40;43.20;;;;;;5112885;28;20846;-77
2022/08/04 12:10:47;;;;;;;1.37;1.37;;;39.50;43.10;;;;;;5111562;28;20530;-77
2022/08/04 12:13:22;;;;;;;1.77;1.67;;;39.60;42.90;;;;;;5111001;28;20564;-77
2022/08/04 12:15:56;;;;;;;1.77;1.60;;;39.80;42.90;;;;;;5110672;28;20547;-77
2022/08/04 12:18:27;;;;;;;3.07;1.67;;;39.90;42.50;;;;;;5112051;28;20446;-77
2022/08/04 12:20:57;;;;;;;1.83;1.73;;;39.90;42.40;;;;;;5110086;28;20440;-77
2022/08/04 12:23:30;;;;;;;1.37;1.27;;;40.00;42.40;;;;;;5109673;28;20489;-78
2022/08/04 12:26:00;;;;;;;1.40;1.40;;;40.10;42.40;;;;;;5105917;28;20948;-81
2022/08/04 12:28:33;;;;;;;1.80;1.70;;;40.20;42.10;;;;;;5115714;28;20493;-79
2022/08/04 12:31:26;;;;;;;1.30;1.30;;;40.20;42.00;;;;;;5112152;28;20428;-79
2022/08/04 12:33:58;;;;;;;1.60;1.50;;;40.30;41.90;;;;;;5115950;28;20455;-78
2022/08/04 12:36:35;;;;;;;1.77;1.67;;;40.40;41.90;;;;;;5114880;28;20436;-79
2022/08/04 12:39:09;;;;;;;1.53;1.43;;;40.40;41.60;;;;;;5115098;28;20473;-78
2022/08/04 12:41:40;;;;;;;1.47;1.40;;;40.50;41.30;;;;;;5111328;27;20455;-78
2022/08/04 12:44:12;;;;;;;1.60;1.50;;;40.60;41.70;;;;;;5119728;28;20832;-78
2022/08/04 12:47:00;;;;;;;1.20;1.20;;;40.60;41.40;;;;;;5119050;27;20946;-78
2022/08/04 12:49:48;;;;;;;1.67;1.50;;;40.70;41.40;;;;;;5120649;28;20428;-78
2022/08/04 12:52:27;;;;;;;1.60;1.50;;;40.70;41.30;;;;;;5120840;28;20415;-77
2022/08/04 12:55:15;;;;;;;1.73;1.63;;;40.80;41.30;;;;;;5119467;28;20455;-78
2022/08/04 12:57:43;;;;;;;3.20;1.50;;;40.80;41.10;;;;;;5111884;28;20522;-81
2022/08/04 13:00:14;;;;;;;1.90;1.80;;;40.80;41.00;;;;;;5119965;28;20518;-79
2022/08/04 13:02:43;;;;;;;3.27;1.67;;;40.80;41.00;;;;;;5120139;28;20522;-77
2022/08/04 13:05:11;;;;;;;2.40;1.70;;;40.70;41.00;;;;;;5116539;28;20494;-75
2022/08/04 13:07:49;;;;;;;1.90;1.80;;;40.60;41.20;;;;;;5114223;28;20445;-76
2022/08/04 13:10:19;;;;;;;1.57;1.47;;;40.50;41.20;;;;;;5115608;28;20439;-76
2022/08/04 13:12:57;;;;;;;2.23;1.60;;;40.50;41.40;;;;;;5115442;28;20451;-76
2022/08/04 13:15:28;;;;;;;2.30;1.67;;;40.40;41.30;;;;;;5117176;28;20980;-78
2022/08/04 13:17:58;;;;;;;3.10;1.57;;;40.40;41.60;;;;;;5119651;28;20456;-78
2022/08/04 13:20:28;;;;;;;1.77;1.67;;;40.40;41.50;;;;;;5119402;28;20431;-79
2022/08/04 13:23:06;;;;;;;1.40;1.30;;;40.40;41.50;;;;;;5119650;28;20581;-78
2022/08/04 13:25:39;;;;;;;1.40;1.30;;;40.40;41.50;;;;;;5123538;28;20474;-80
2022/08/04 13:28:27;;;;;;;2.13;1.70;;;40.30;41.70;;;;;;5118510;28;20451;-81